Airfield :
LOGIN :

Register | Disclaimer

   EN    FR    IT 

 










Legend :    VFR   Marginal VFR   IFR   Intensive IFR   Very Intensive IFR
Visi :
Ceiling :
>= 8 km
>= 3000ft
5 to 8 km
1000 to 3000 ft
1500m to 5 km
500 to 1000 ft
800 to 1500m
200 to 500 ft
< 800m
< 200 ft
Symbols :   Thunderstorms  Fog  Heavy snow  Heavy precipitations  Wind > 20 kt
SIGMETs :     Misc.  Thunderstorms  Icing  Turbulence  Mountain Waves  Volcanic Ashes






- Airport Elevation : 357 ft
- IATA code : TUF


LFOT - Tours

CURRENT METAR :
  • 031000Z AUTO 25005KT 220V310 CAVOK 22/13 Q1006 TEMPO SCT060CB

EXPIRED METARs :
  • 030930Z AUTO 24004KT 170V300 CAVOK 21/13 Q1007 TEMPO SCT060CB
  • 030900Z AUTO 22005KT 170V260 CAVOK 20/13 Q1007 NOSIG
  • 030830Z AUTO 18006KT 150V220 9999 ///TCU 20/13 Q1007 BECMG NSC
  • 030800Z AUTO VRB03KT 9999 ///TCU 18/12 Q1007 BECMG NSC
  • 030730Z AUTO 34005KT 310V020 9999 ///TCU 17/12 Q1007 BECMG NSC

TAF TAF LFOT
Valid from the 03 at 06:00 until the 04 at 06:00 UTC


030500Z 0306/0406 34006KT CAVOK
TEMPO 0311/0324 -SHRA SCT060CB
PROB40
TEMPO 0313/0318 27015G25KT 2000 TSRA BKN060CB
TEMPO 0404/0406 BKN010



MET'MAP, your aeronautical weather chart ! - Copyright ORBIFLY December 2007 - Disclaimer

ORBIFLY MET'MAP TEAM :

Programming & Development : Alexandra Zaïnal
Concept & original design : Baudouin d'Aumeries
Assistance for programming : Marc-Olivier Méhu
Technical & hardware support : Manuel Goepfert

Contact : metmap@orbifly.com




SOURCES & CREDITS :

   NOAA